KJRB/JRB METAR and TAF weather

Enter ICAO airport designator
Station Type Date Time Source
KJRB METAR 2023/02/05 22:56 UTC NOAA

KJRB 052256Z AUTO 00000KT 10SM CLR 07/M02 A3004 RMK AO2 SLP172 T00721017


Station Type Date Time Source
KJRB Decoded METAR 2023/02/05 22:56 UTC NOAA

Station name not available
Feb 05, 2023 - 05:56 PM EST / 2023.02.05 2256 UTC
Wind: Calm:0
Visibility: 10 mile(s):0
Sky conditions: clear
Temperature: 45.0 F (7.2 C)
Dew Point: 28.9 F (-1.7 C)
Relative Humidity: 53%
Pressure (altimeter): 30.04 in. Hg (1017 hPa)
ob: KJRB 052256Z AUTO 00000KT 10SM CLR 07/M02 A3004 RMK AO2 SLP172 T00721017
cycle: 23

Station Type Date Time Source
KJRB TAF UTC NOAA

Error!

Example: see airport list